sensor_id;sensor_type;location;lat;lon;timestamp;pressure;altitude;pressure_sealevel;temperature
51149;BMP280;37210;50.058;8.688;2023-02-28T00:01:32;101338.66;;;0.96
51149;BMP280;37210;50.058;8.688;2023-02-28T00:04:00;101408.97;;;1.24
51149;BMP280;37210;50.058;8.688;2023-02-28T00:06:29;101404.41;;;1.04
51149;BMP280;37210;50.058;8.688;2023-02-28T00:08:57;101401.81;;;1.19
51149;BMP280;37210;50.058;8.688;2023-02-28T00:11:26;101279.69;;;0.70
51149;BMP280;37210;50.058;8.688;2023-02-28T00:13:54;101351.97;;;0.88
51149;BMP280;37210;50.058;8.688;2023-02-28T00:16:22;101376.84;;;1.34
51149;BMP280;37210;50.058;8.688;2023-02-28T00:18:50;101402.13;;;1.55
51149;BMP280;37210;50.058;8.688;2023-02-28T00:21:19;101399.09;;;1.32
51149;BMP280;37210;50.058;8.688;2023-02-28T00:23:47;101319.75;;;1.42
51149;BMP280;37210;50.058;8.688;2023-02-28T00:26:15;101403.72;;;1.53
51149;BMP280;37210;50.058;8.688;2023-02-28T00:28:46;101407.59;;;1.45
51149;BMP280;37210;50.058;8.688;2023-02-28T00:31:14;101412.78;;;1.78
51149;BMP280;37210;50.058;8.688;2023-02-28T00:33:42;101408.47;;;1.46
51149;BMP280;37210;50.058;8.688;2023-02-28T00:36:11;101367.78;;;1.56
51149;BMP280;37210;50.058;8.688;2023-02-28T00:38:40;101406.19;;;1.67
51149;BMP280;37210;50.058;8.688;2023-02-28T00:41:09;101339.41;;;1.24
51149;BMP280;37210;50.058;8.688;2023-02-28T00:43:38;101373.25;;;1.46
51149;BMP280;37210;50.058;8.688;2023-02-28T00:46:08;101406.31;;;1.70
51149;BMP280;37210;50.058;8.688;2023-02-28T00:48:36;101405.38;;;2.00
51149;BMP280;37210;50.058;8.688;2023-02-28T00:51:04;101291.78;;;1.18
51149;BMP280;37210;50.058;8.688;2023-02-28T00:53:33;101405.53;;;1.87
51149;BMP280;37210;50.058;8.688;2023-02-28T00:56:01;101299.13;;;1.10
51149;BMP280;37210;50.058;8.688;2023-02-28T00:58:29;101411.81;;;1.76
51149;BMP280;37210;50.058;8.688;2023-02-28T01:00:59;101406.38;;;1.39
51149;BMP280;37210;50.058;8.688;2023-02-28T01:03:28;101395.16;;;1.08
51149;BMP280;37210;50.058;8.688;2023-02-28T01:05:56;101411.34;;;1.36
51149;BMP280;37210;50.058;8.688;2023-02-28T01:08:25;101353.06;;;1.23
51149;BMP280;37210;50.058;8.688;2023-02-28T01:10:53;101134.50;;;-0.10
51149;BMP280;37210;50.058;8.688;2023-02-28T01:13:22;101295.63;;;0.34
51149;BMP280;37210;50.058;8.688;2023-02-28T01:15:53;101408.03;;;1.38
51149;BMP280;37210;50.058;8.688;2023-02-28T01:18:22;101340.28;;;0.94
51149;BMP280;37210;50.058;8.688;2023-02-28T01:20:52;101395.28;;;1.25
51149;BMP280;37210;50.058;8.688;2023-02-28T01:23:21;101400.06;;;1.03
51149;BMP280;37210;50.058;8.688;2023-02-28T01:25:50;101403.16;;;1.43
51149;BMP280;37210;50.058;8.688;2023-02-28T01:28:18;101227.63;;;0.14
51149;BMP280;37210;50.058;8.688;2023-02-28T01:30:48;101395.69;;;1.17
51149;BMP280;37210;50.058;8.688;2023-02-28T01:33:16;101313.16;;;0.70
51149;BMP280;37210;50.058;8.688;2023-02-28T01:35:44;101399.66;;;1.26
51149;BMP280;37210;50.058;8.688;2023-02-28T01:38:13;101283.94;;;0.69
51149;BMP280;37210;50.058;8.688;2023-02-28T01:40:41;101371.50;;;0.69
51149;BMP280;37210;50.058;8.688;2023-02-28T01:43:19;101386.75;;;0.96
51149;BMP280;37210;50.058;8.688;2023-02-28T01:45:48;101354.72;;;0.76
51149;BMP280;37210;50.058;8.688;2023-02-28T01:48:16;101345.66;;;0.82
51149;BMP280;37210;50.058;8.688;2023-02-28T01:50:47;101311.19;;;0.80
51149;BMP280;37210;50.058;8.688;2023-02-28T01:53:21;101399.09;;;1.01
51149;BMP280;37210;50.058;8.688;2023-02-28T01:55:57;101394.34;;;1.09
51149;BMP280;37210;50.058;8.688;2023-02-28T01:58:25;101185.25;;;-0.07
51149;BMP280;37210;50.058;8.688;2023-02-28T02:00:53;101372.81;;;1.23
51149;BMP280;37210;50.058;8.688;2023-02-28T02:03:21;101378.25;;;1.43
51149;BMP280;37210;50.058;8.688;2023-02-28T02:05:49;101345.75;;;1.15
51149;BMP280;37210;50.058;8.688;2023-02-28T02:08:20;101365.91;;;1.07
51149;BMP280;37210;50.058;8.688;2023-02-28T02:10:51;101335.59;;;0.87
51149;BMP280;37210;50.058;8.688;2023-02-28T02:13:34;101347.19;;;1.10
51149;BMP280;37210;50.058;8.688;2023-02-28T02:16:23;101382.50;;;0.67
51149;BMP280;37210;50.058;8.688;2023-02-28T02:19:14;101352.75;;;0.72
51149;BMP280;37210;50.058;8.688;2023-02-28T02:22:12;101360.03;;;0.94
51149;BMP280;37210;50.058;8.688;2023-02-28T02:25:12;101381.69;;;0.97
51149;BMP280;37210;50.058;8.688;2023-02-28T02:28:22;101385.81;;;0.64
51149;BMP280;37210;50.058;8.688;2023-02-28T02:31:33;101385.72;;;0.48
51149;BMP280;37210;50.058;8.688;2023-02-28T02:34:43;101301.25;;;0.12
51149;BMP280;37210;50.058;8.688;2023-02-28T02:37:26;101318.88;;;0.50
51149;BMP280;37210;50.058;8.688;2023-02-28T02:40:03;101364.31;;;0.78
51149;BMP280;37210;50.058;8.688;2023-02-28T02:42:41;101373.00;;;0.08
51149;BMP280;37210;50.058;8.688;2023-02-28T02:45:20;101302.72;;;-0.06
51149;BMP280;37210;50.058;8.688;2023-02-28T02:47:54;101311.44;;;0.25
51149;BMP280;37210;50.058;8.688;2023-02-28T02:50:31;101325.03;;;0.23
51149;BMP280;37210;50.058;8.688;2023-02-28T02:53:05;101358.22;;;0.33
51149;BMP280;37210;50.058;8.688;2023-02-28T02:55:41;101360.22;;;0.67
51149;BMP280;37210;50.058;8.688;2023-02-28T02:58:16;101317.72;;;0.01
51149;BMP280;37210;50.058;8.688;2023-02-28T03:00:50;101354.13;;;0.51
51149;BMP280;37210;50.058;8.688;2023-02-28T03:03:21;101364.84;;;0.15
51149;BMP280;37210;50.058;8.688;2023-02-28T03:05:58;101332.38;;;0.17
51149;BMP280;37210;50.058;8.688;2023-02-28T03:08:29;101370.81;;;0.57
51149;BMP280;37210;50.058;8.688;2023-02-28T03:11:03;101369.84;;;0.41
51149;BMP280;37210;50.058;8.688;2023-02-28T03:13:54;101361.19;;;0.11
51149;BMP280;37210;50.058;8.688;2023-02-28T03:16:35;101353.75;;;0.16
51149;BMP280;37210;50.058;8.688;2023-02-28T03:19:25;101328.28;;;0.49
51149;BMP280;37210;50.058;8.688;2023-02-28T03:22:12;101344.09;;;0.12
51149;BMP280;37210;50.058;8.688;2023-02-28T03:24:50;101372.31;;;0.39
51149;BMP280;37210;50.058;8.688;2023-02-28T03:27:28;101367.78;;;0.21
51149;BMP280;37210;50.058;8.688;2023-02-28T03:30:04;101369.75;;;0.25
51149;BMP280;37210;50.058;8.688;2023-02-28T03:32:39;101322.66;;;-0.17
51149;BMP280;37210;50.058;8.688;2023-02-28T03:35:19;101351.81;;;0.26
51149;BMP280;37210;50.058;8.688;2023-02-28T03:37:53;101361.13;;;0.24
51149;BMP280;37210;50.058;8.688;2023-02-28T03:40:30;101346.09;;;0.03
51149;BMP280;37210;50.058;8.688;2023-02-28T03:43:07;101367.25;;;0.26
51149;BMP280;37210;50.058;8.688;2023-02-28T03:45:41;101356.25;;;0.14
51149;BMP280;37210;50.058;8.688;2023-02-28T03:48:14;101350.81;;;-0.05
51149;BMP280;37210;50.058;8.688;2023-02-28T03:50:49;101351.53;;;0.22
51149;BMP280;37210;50.058;8.688;2023-02-28T03:53:27;101355.78;;;0.21
51149;BMP280;37210;50.058;8.688;2023-02-28T03:56:01;101368.22;;;0.14
51149;BMP280;37210;50.058;8.688;2023-02-28T03:58:39;101367.34;;;0.42
51149;BMP280;37210;50.058;8.688;2023-02-28T04:01:17;101355.06;;;0.09
51149;BMP280;37210;50.058;8.688;2023-02-28T04:03:49;101366.81;;;0.19
51149;BMP280;37210;50.058;8.688;2023-02-28T04:06:19;101349.31;;;0.28
51149;BMP280;37210;50.058;8.688;2023-02-28T04:08:49;101373.56;;;0.46
51149;BMP280;37210;50.058;8.688;2023-02-28T04:11:23;101366.25;;;0.10
51149;BMP280;37210;50.058;8.688;2023-02-28T04:13:55;101365.91;;;0.04
51149;BMP280;37210;50.058;8.688;2023-02-28T04:16:22;101354.94;;;0.21
51149;BMP280;37210;50.058;8.688;2023-02-28T04:18:50;101335.72;;;0.01
51149;BMP280;37210;50.058;8.688;2023-02-28T04:21:17;101380.47;;;0.47
51149;BMP280;37210;50.058;8.688;2023-02-28T04:23:48;101351.19;;;0.59
51149;BMP280;37210;50.058;8.688;2023-02-28T04:26:17;101382.41;;;0.65
51149;BMP280;37210;50.058;8.688;2023-02-28T04:28:44;101355.56;;;0.31
51149;BMP280;37210;50.058;8.688;2023-02-28T04:31:11;101345.47;;;-0.08
51149;BMP280;37210;50.058;8.688;2023-02-28T04:33:39;101365.31;;;0.37
51149;BMP280;37210;50.058;8.688;2023-02-28T04:36:08;101368.63;;;0.07
51149;BMP280;37210;50.058;8.688;2023-02-28T04:38:37;101380.91;;;0.25
51149;BMP280;37210;50.058;8.688;2023-02-28T04:41:07;101348.34;;;0.26
51149;BMP280;37210;50.058;8.688;2023-02-28T04:43:35;101377.63;;;0.28
51149;BMP280;37210;50.058;8.688;2023-02-28T04:46:04;101380.91;;;0.40
51149;BMP280;37210;50.058;8.688;2023-02-28T04:48:34;101376.94;;;0.45
51149;BMP280;37210;50.058;8.688;2023-02-28T04:51:03;101374.00;;;0.39
51149;BMP280;37210;50.058;8.688;2023-02-28T04:53:32;101364.66;;;0.12
51149;BMP280;37210;50.058;8.688;2023-02-28T04:56:00;101285.53;;;-0.07
51149;BMP280;37210;50.058;8.688;2023-02-28T04:58:29;101334.94;;;0.02
51149;BMP280;37210;50.058;8.688;2023-02-28T05:01:02;101361.22;;;0.40
51149;BMP280;37210;50.058;8.688;2023-02-28T05:03:38;101318.38;;;-0.31
51149;BMP280;37210;50.058;8.688;2023-02-28T05:06:07;101326.94;;;-0.17
51149;BMP280;37210;50.058;8.688;2023-02-28T05:08:35;101273.84;;;-0.59
51149;BMP280;37210;50.058;8.688;2023-02-28T05:11:04;101341.50;;;0.12
51149;BMP280;37210;50.058;8.688;2023-02-28T05:13:34;101377.50;;;-0.03
51149;BMP280;37210;50.058;8.688;2023-02-28T05:16:01;101299.59;;;-0.85
51149;BMP280;37210;50.058;8.688;2023-02-28T05:18:29;101368.13;;;-0.30
51149;BMP280;37210;50.058;8.688;2023-02-28T05:20:56;101376.56;;;0.10
51149;BMP280;37210;50.058;8.688;2023-02-28T05:23:24;101354.69;;;-0.12
51149;BMP280;37210;50.058;8.688;2023-02-28T05:25:52;101362.72;;;0.08
51149;BMP280;37210;50.058;8.688;2023-02-28T05:28:20;101369.09;;;-0.28
51149;BMP280;37210;50.058;8.688;2023-02-28T05:30:49;101390.13;;;-0.21
51149;BMP280;37210;50.058;8.688;2023-02-28T05:33:16;101387.13;;;0.14
51149;BMP280;37210;50.058;8.688;2023-02-28T05:35:43;101352.69;;;0.12
51149;BMP280;37210;50.058;8.688;2023-02-28T05:38:11;101348.66;;;-0.12
51149;BMP280;37210;50.058;8.688;2023-02-28T05:40:38;101384.34;;;0.11
51149;BMP280;37210;50.058;8.688;2023-02-28T05:43:10;101359.28;;;-0.21
51149;BMP280;37210;50.058;8.688;2023-02-28T05:45:38;101285.22;;;-0.68
51149;BMP280;37210;50.058;8.688;2023-02-28T05:48:07;101375.88;;;-0.16
51149;BMP280;37210;50.058;8.688;2023-02-28T05:50:35;101394.84;;;0.14
51149;BMP280;37210;50.058;8.688;2023-02-28T05:53:03;101372.16;;;-0.06
51149;BMP280;37210;50.058;8.688;2023-02-28T05:55:30;101383.00;;;0.03
51149;BMP280;37210;50.058;8.688;2023-02-28T05:57:58;101395.34;;;0.09
51149;BMP280;37210;50.058;8.688;2023-02-28T06:00:25;101398.06;;;-0.03
51149;BMP280;37210;50.058;8.688;2023-02-28T06:02:53;101383.91;;;0.04
51149;BMP280;37210;50.058;8.688;2023-02-28T06:05:25;101397.50;;;0.30
51149;BMP280;37210;50.058;8.688;2023-02-28T06:07:53;101396.59;;;0.15
51149;BMP280;37210;50.058;8.688;2023-02-28T06:10:23;101385.97;;;-0.19
51149;BMP280;37210;50.058;8.688;2023-02-28T06:12:50;101395.19;;;0.20
51149;BMP280;37210;50.058;8.688;2023-02-28T06:15:18;101380.34;;;0.02
51149;BMP280;37210;50.058;8.688;2023-02-28T06:17:46;101395.78;;;-0.26
51149;BMP280;37210;50.058;8.688;2023-02-28T06:20:14;101317.28;;;-0.49
51149;BMP280;37210;50.058;8.688;2023-02-28T06:22:46;101309.41;;;-0.37
51149;BMP280;37210;50.058;8.688;2023-02-28T06:25:13;101407.38;;;0.23
51149;BMP280;37210;50.058;8.688;2023-02-28T06:27:41;101402.53;;;-0.01
51149;BMP280;37210;50.058;8.688;2023-02-28T06:30:10;101390.44;;;-0.02
51149;BMP280;37210;50.058;8.688;2023-02-28T06:32:38;101374.19;;;-0.43
51149;BMP280;37210;50.058;8.688;2023-02-28T06:35:06;101296.38;;;-0.68
51149;BMP280;37210;50.058;8.688;2023-02-28T06:37:34;101396.38;;;-0.17
51149;BMP280;37210;50.058;8.688;2023-02-28T06:40:10;101413.81;;;0.16
51149;BMP280;37210;50.058;8.688;2023-02-28T06:42:40;101434.94;;;0.25
51149;BMP280;37210;50.058;8.688;2023-02-28T06:45:08;101424.13;;;0.16
51149;BMP280;37210;50.058;8.688;2023-02-28T06:47:38;101419.66;;;0.14
51149;BMP280;37210;50.058;8.688;2023-02-28T06:50:09;101409.13;;;0.24
51149;BMP280;37210;50.058;8.688;2023-02-28T06:52:38;101439.22;;;0.25
51149;BMP280;37210;50.058;8.688;2023-02-28T06:55:08;101428.09;;;0.26
51149;BMP280;37210;50.058;8.688;2023-02-28T06:57:36;101424.22;;;0.47
51149;BMP280;37210;50.058;8.688;2023-02-28T07:00:07;101403.28;;;0.55
51149;BMP280;37210;50.058;8.688;2023-02-28T07:02:36;101399.66;;;0.66
51149;BMP280;37210;50.058;8.688;2023-02-28T07:05:05;101423.19;;;0.87
51149;BMP280;37210;50.058;8.688;2023-02-28T07:07:33;101440.34;;;1.17
51149;BMP280;37210;50.058;8.688;2023-02-28T07:10:02;101435.22;;;1.03
51149;BMP280;37210;50.058;8.688;2023-02-28T07:12:31;101431.91;;;1.50
51149;BMP280;37210;50.058;8.688;2023-02-28T07:14:59;101436.09;;;1.18
51149;BMP280;37210;50.058;8.688;2023-02-28T07:17:26;101369.81;;;1.15
51149;BMP280;37210;50.058;8.688;2023-02-28T07:19:54;101426.41;;;1.28
51149;BMP280;37210;50.058;8.688;2023-02-28T07:22:22;101374.19;;;1.16
51149;BMP280;37210;50.058;8.688;2023-02-28T07:24:51;101432.16;;;1.55
51149;BMP280;37210;50.058;8.688;2023-02-28T07:27:18;101354.31;;;0.99
51149;BMP280;37210;50.058;8.688;2023-02-28T07:29:53;101376.84;;;1.65
51149;BMP280;37210;50.058;8.688;2023-02-28T07:32:22;101426.59;;;2.10
51149;BMP280;37210;50.058;8.688;2023-02-28T07:34:50;101443.03;;;1.96
51149;BMP280;37210;50.058;8.688;2023-02-28T07:37:18;101437.69;;;2.41
51149;BMP280;37210;50.058;8.688;2023-02-28T07:39:46;101356.09;;;2.45
51149;BMP280;37210;50.058;8.688;2023-02-28T07:42:14;101423.19;;;2.77
51149;BMP280;37210;50.058;8.688;2023-02-28T07:44:41;101439.44;;;2.59
51149;BMP280;37210;50.058;8.688;2023-02-28T07:47:10;101315.75;;;2.29
51149;BMP280;37210;50.058;8.688;2023-02-28T07:49:38;101430.94;;;2.95
51149;BMP280;37210;50.058;8.688;2023-02-28T07:52:07;101395.78;;;2.98
51149;BMP280;37210;50.058;8.688;2023-02-28T07:54:35;101430.28;;;2.65
51149;BMP280;37210;50.058;8.688;2023-02-28T07:57:02;101413.00;;;2.98
51149;BMP280;37210;50.058;8.688;2023-02-28T07:59:30;101434.16;;;2.73
51149;BMP280;37210;50.058;8.688;2023-02-28T08:01:58;101429.19;;;2.94
51149;BMP280;37210;50.058;8.688;2023-02-28T08:04:27;101343.41;;;2.50
51149;BMP280;37210;50.058;8.688;2023-02-28T08:06:55;101395.94;;;3.19
51149;BMP280;37210;50.058;8.688;2023-02-28T08:09:23;101357.59;;;2.93
51149;BMP280;37210;50.058;8.688;2023-02-28T08:11:50;101431.97;;;3.51
51149;BMP280;37210;50.058;8.688;2023-02-28T08:14:18;101427.44;;;3.65
51149;BMP280;37210;50.058;8.688;2023-02-28T08:16:46;101391.28;;;2.94
51149;BMP280;37210;50.058;8.688;2023-02-28T08:19:14;101429.72;;;4.15
51149;BMP280;37210;50.058;8.688;2023-02-28T08:21:43;101401.03;;;4.90
51149;BMP280;37210;50.058;8.688;2023-02-28T08:24:11;101382.69;;;4.64
51149;BMP280;37210;50.058;8.688;2023-02-28T08:26:38;101399.03;;;4.84
51149;BMP280;37210;50.058;8.688;2023-02-28T08:29:06;101166.81;;;3.21
51149;BMP280;37210;50.058;8.688;2023-02-28T08:31:34;101430.53;;;4.72
51149;BMP280;37210;50.058;8.688;2023-02-28T08:34:05;101381.81;;;3.67
51149;BMP280;37210;50.058;8.688;2023-02-28T08:36:33;101429.53;;;4.69
51149;BMP280;37210;50.058;8.688;2023-02-28T08:39:03;101327.06;;;4.36
51149;BMP280;37210;50.058;8.688;2023-02-28T08:41:32;101301.22;;;4.37
51149;BMP280;37210;50.058;8.688;2023-02-28T08:44:00;101428.69;;;4.91
51149;BMP280;37210;50.058;8.688;2023-02-28T08:46:28;101417.00;;;3.63
51149;BMP280;37210;50.058;8.688;2023-02-28T08:48:57;101432.44;;;4.18
51149;BMP280;37210;50.058;8.688;2023-02-28T08:51:26;101412.75;;;4.02
51149;BMP280;37210;50.058;8.688;2023-02-28T08:53:57;101464.13;;;3.39
51149;BMP280;37210;50.058;8.688;2023-02-28T08:56:28;101360.31;;;4.06
51149;BMP280;37210;50.058;8.688;2023-02-28T08:58:57;101310.38;;;3.70
51149;BMP280;37210;50.058;8.688;2023-02-28T09:01:26;101359.78;;;4.34
51149;BMP280;37210;50.058;8.688;2023-02-28T09:03:56;101414.66;;;4.25
51149;BMP280;37210;50.058;8.688;2023-02-28T09:06:26;101324.47;;;4.15
51149;BMP280;37210;50.058;8.688;2023-02-28T09:08:56;101423.69;;;5.16
51149;BMP280;37210;50.058;8.688;2023-02-28T09:11:25;101325.53;;;4.01
51149;BMP280;37210;50.058;8.688;2023-02-28T09:13:55;101431.25;;;4.49
51149;BMP280;37210;50.058;8.688;2023-02-28T09:16:23;101302.38;;;4.04
51149;BMP280;37210;50.058;8.688;2023-02-28T09:18:50;101407.41;;;4.37
51149;BMP280;37210;50.058;8.688;2023-02-28T09:21:18;101424.81;;;4.21
51149;BMP280;37210;50.058;8.688;2023-02-28T09:23:48;101397.56;;;3.90
51149;BMP280;37210;50.058;8.688;2023-02-28T09:26:20;101325.84;;;3.69
51149;BMP280;37210;50.058;8.688;2023-02-28T09:28:51;101234.47;;;2.93
51149;BMP280;37210;50.058;8.688;2023-02-28T09:31:21;101436.34;;;4.27
51149;BMP280;37210;50.058;8.688;2023-02-28T09:33:53;101383.59;;;3.87
51149;BMP280;37210;50.058;8.688;2023-02-28T09:36:23;101329.41;;;3.34
51149;BMP280;37210;50.058;8.688;2023-02-28T09:38:52;101413.59;;;4.41
51149;BMP280;37210;50.058;8.688;2023-02-28T09:41:22;101408.09;;;4.52
51149;BMP280;37210;50.058;8.688;2023-02-28T09:43:57;101417.94;;;4.02
51149;BMP280;37210;50.058;8.688;2023-02-28T09:46:32;101372.22;;;3.83
51149;BMP280;37210;50.058;8.688;2023-02-28T09:49:10;101367.63;;;4.16
51149;BMP280;37210;50.058;8.688;2023-02-28T09:51:48;101353.69;;;4.52
51149;BMP280;37210;50.058;8.688;2023-02-28T09:54:21;101410.31;;;4.84
51149;BMP280;37210;50.058;8.688;2023-02-28T09:56:54;101324.28;;;3.91
51149;BMP280;37210;50.058;8.688;2023-02-28T09:59:39;101326.13;;;3.75
51149;BMP280;37210;50.058;8.688;2023-02-28T10:02:27;101427.63;;;4.25
51149;BMP280;37210;50.058;8.688;2023-02-28T10:05:11;101193.94;;;3.31
51149;BMP280;37210;50.058;8.688;2023-02-28T10:07:57;101401.06;;;5.12
51149;BMP280;37210;50.058;8.688;2023-02-28T10:10:36;101405.28;;;5.75
51149;BMP280;37210;50.058;8.688;2023-02-28T10:13:14;101363.88;;;5.55
51149;BMP280;37210;50.058;8.688;2023-02-28T10:15:52;101351.97;;;5.60
51149;BMP280;37210;50.058;8.688;2023-02-28T10:18:27;101421.44;;;5.45
51149;BMP280;37210;50.058;8.688;2023-02-28T10:21:02;101173.34;;;3.53
51149;BMP280;37210;50.058;8.688;2023-02-28T10:23:34;101420.78;;;5.29
51149;BMP280;37210;50.058;8.688;2023-02-28T10:26:11;101395.78;;;4.88
51149;BMP280;37210;50.058;8.688;2023-02-28T10:28:42;101370.28;;;4.57
51149;BMP280;37210;50.058;8.688;2023-02-28T10:31:15;101370.63;;;4.65
51149;BMP280;37210;50.058;8.688;2023-02-28T10:33:45;101269.94;;;4.53
51149;BMP280;37210;50.058;8.688;2023-02-28T10:36:16;101362.41;;;4.75
51149;BMP280;37210;50.058;8.688;2023-02-28T10:38:47;101404.31;;;5.28
51149;BMP280;37210;50.058;8.688;2023-02-28T10:41:27;101381.81;;;5.27
51149;BMP280;37210;50.058;8.688;2023-02-28T10:44:20;101279.28;;;4.93
51149;BMP280;37210;50.058;8.688;2023-02-28T10:46:51;101214.78;;;4.35
51149;BMP280;37210;50.058;8.688;2023-02-28T10:49:22;101355.78;;;5.04
51149;BMP280;37210;50.058;8.688;2023-02-28T10:51:53;101403.50;;;5.51
51149;BMP280;37210;50.058;8.688;2023-02-28T10:54:28;101273.41;;;4.54
51149;BMP280;37210;50.058;8.688;2023-02-28T10:57:16;101397.13;;;5.43
51149;BMP280;37210;50.058;8.688;2023-02-28T10:59:50;101250.31;;;4.17
51149;BMP280;37210;50.058;8.688;2023-02-28T11:02:35;101399.56;;;5.39
51149;BMP280;37210;50.058;8.688;2023-02-28T11:05:23;101358.97;;;4.55
51149;BMP280;37210;50.058;8.688;2023-02-28T11:07:53;101369.28;;;4.74
51149;BMP280;37210;50.058;8.688;2023-02-28T11:10:26;101383.25;;;4.78
51149;BMP280;37210;50.058;8.688;2023-02-28T11:13:01;101407.13;;;4.50
51149;BMP280;37210;50.058;8.688;2023-02-28T11:15:30;101364.72;;;4.48
51149;BMP280;37210;50.058;8.688;2023-02-28T11:18:08;101353.53;;;4.49
51149;BMP280;37210;50.058;8.688;2023-02-28T11:20:49;101397.69;;;4.92
51149;BMP280;37210;50.058;8.688;2023-02-28T11:23:19;101385.63;;;5.15
51149;BMP280;37210;50.058;8.688;2023-02-28T11:25:52;101392.84;;;5.44
51149;BMP280;37210;50.058;8.688;2023-02-28T11:28:26;101379.31;;;5.30
51149;BMP280;37210;50.058;8.688;2023-02-28T11:31:03;101303.31;;;4.88
51149;BMP280;37210;50.058;8.688;2023-02-28T11:33:50;101341.13;;;5.48
51149;BMP280;37210;50.058;8.688;2023-02-28T11:36:23;101293.19;;;5.17
51149;BMP280;37210;50.058;8.688;2023-02-28T11:38:54;101381.81;;;5.27
51149;BMP280;37210;50.058;8.688;2023-02-28T11:41:35;101342.78;;;4.81
51149;BMP280;37210;50.058;8.688;2023-02-28T11:44:30;101303.03;;;4.81
51149;BMP280;37210;50.058;8.688;2023-02-28T11:47:13;101341.63;;;4.96
51149;BMP280;37210;50.058;8.688;2023-02-28T11:50:04;101240.31;;;4.05
51149;BMP280;37210;50.058;8.688;2023-02-28T11:52:56;101259.38;;;4.28
51149;BMP280;37210;50.058;8.688;2023-02-28T11:55:33;101225.63;;;4.47
51149;BMP280;37210;50.058;8.688;2023-02-28T11:58:25;101238.81;;;4.11
51149;BMP280;37210;50.058;8.688;2023-02-28T12:01:14;101382.94;;;5.13
51149;BMP280;37210;50.058;8.688;2023-02-28T12:03:59;101352.06;;;5.63
51149;BMP280;37210;50.058;8.688;2023-02-28T12:06:45;101323.53;;;4.97
51149;BMP280;37210;50.058;8.688;2023-02-28T12:09:35;101384.81;;;4.95
51149;BMP280;37210;50.058;8.688;2023-02-28T12:12:21;101135.63;;;3.58
51149;BMP280;37210;50.058;8.688;2023-02-28T12:15:05;101364.66;;;5.31
51149;BMP280;37210;50.058;8.688;2023-02-28T12:18:10;101369.41;;;5.42
51149;BMP280;37210;50.058;8.688;2023-02-28T12:20:55;101325.50;;;5.25
51149;BMP280;37210;50.058;8.688;2023-02-28T12:23:49;101360.53;;;5.36
51149;BMP280;37210;50.058;8.688;2023-02-28T12:26:34;101367.03;;;5.04
51149;BMP280;37210;50.058;8.688;2023-02-28T12:29:12;101187.06;;;4.33
51149;BMP280;37210;50.058;8.688;2023-02-28T12:31:49;101353.63;;;5.58
51149;BMP280;37210;50.058;8.688;2023-02-28T12:34:23;101210.69;;;4.84
51149;BMP280;37210;50.058;8.688;2023-02-28T12:36:58;101202.03;;;5.06
51149;BMP280;37210;50.058;8.688;2023-02-28T12:39:39;101330.56;;;5.44
51149;BMP280;37210;50.058;8.688;2023-02-28T12:42:13;101357.31;;;5.65
51149;BMP280;37210;50.058;8.688;2023-02-28T12:44:52;101133.03;;;4.42
51149;BMP280;37210;50.058;8.688;2023-02-28T12:47:27;101351.56;;;5.50
51149;BMP280;37210;50.058;8.688;2023-02-28T12:49:58;101342.69;;;5.45
51149;BMP280;37210;50.058;8.688;2023-02-28T12:52:37;101349.31;;;5.59
51149;BMP280;37210;50.058;8.688;2023-02-28T12:55:21;101344.13;;;5.59
51149;BMP280;37210;50.058;8.688;2023-02-28T12:58:00;101351.75;;;5.78
51149;BMP280;37210;50.058;8.688;2023-02-28T13:00:53;101265.94;;;5.28
51149;BMP280;37210;50.058;8.688;2023-02-28T13:07:19;101289.06;;;5.44
51149;BMP280;37210;50.058;8.688;2023-02-28T13:10:08;101150.75;;;4.75
51149;BMP280;37210;50.058;8.688;2023-02-28T13:12:47;101334.59;;;5.82
51149;BMP280;37210;50.058;8.688;2023-02-28T13:15:19;101291.56;;;5.42
51149;BMP280;37210;50.058;8.688;2023-02-28T13:17:52;101247.59;;;4.77
51149;BMP280;37210;50.058;8.688;2023-02-28T13:20:24;101349.50;;;5.41
51149;BMP280;37210;50.058;8.688;2023-02-28T13:22:55;101347.88;;;5.67
51149;BMP280;37210;50.058;8.688;2023-02-28T13:32:28;101329.22;;;5.77
51149;BMP280;37210;50.058;8.688;2023-02-28T13:35:35;101066.00;;;4.27
51149;BMP280;37210;50.058;8.688;2023-02-28T13:38:23;101320.38;;;5.94
51149;BMP280;37210;50.058;8.688;2023-02-28T13:41:40;101331.78;;;5.99
51149;BMP280;37210;50.058;8.688;2023-02-28T13:44:10;101326.28;;;5.90
51149;BMP280;37210;50.058;8.688;2023-02-28T13:50:15;101319.56;;;5.97
51149;BMP280;37210;50.058;8.688;2023-02-28T13:52:54;101327.03;;;5.88
51149;BMP280;37210;50.058;8.688;2023-02-28T13:55:37;101295.75;;;5.39
51149;BMP280;37210;50.058;8.688;2023-02-28T13:58:22;101311.31;;;5.61
51149;BMP280;37210;50.058;8.688;2023-02-28T14:01:08;101326.66;;;5.79
51149;BMP280;37210;50.058;8.688;2023-02-28T14:03:58;101301.34;;;5.95
51149;BMP280;37210;50.058;8.688;2023-02-28T14:06:46;101296.66;;;5.85
51149;BMP280;37210;50.058;8.688;2023-02-28T14:09:21;101318.28;;;6.09
51149;BMP280;37210;50.058;8.688;2023-02-28T14:11:52;101267.34;;;5.42
51149;BMP280;37210;50.058;8.688;2023-02-28T14:14:53;101327.88;;;5.64
51149;BMP280;37210;50.058;8.688;2023-02-28T14:17:24;101310.44;;;5.60
51149;BMP280;37210;50.058;8.688;2023-02-28T14:19:54;101311.97;;;5.79
51149;BMP280;37210;50.058;8.688;2023-02-28T14:22:47;101315.75;;;5.87
51149;BMP280;37210;50.058;8.688;2023-02-28T14:25:31;101325.66;;;5.97
51149;BMP280;37210;50.058;8.688;2023-02-28T14:28:12;101320.06;;;5.63
51149;BMP280;37210;50.058;8.688;2023-02-28T14:30:52;101316.84;;;5.70
51149;BMP280;37210;50.058;8.688;2023-02-28T14:33:39;101298.53;;;5.89
51149;BMP280;37210;50.058;8.688;2023-02-28T14:36:22;101297.09;;;5.97
51149;BMP280;37210;50.058;8.688;2023-02-28T14:38:56;101300.31;;;5.90
51149;BMP280;37210;50.058;8.688;2023-02-28T14:41:29;101306.75;;;6.01
51149;BMP280;37210;50.058;8.688;2023-02-28T14:44:02;101316.44;;;5.59
51149;BMP280;37210;50.058;8.688;2023-02-28T14:46:40;101304.91;;;5.75
51149;BMP280;37210;50.058;8.688;2023-02-28T14:49:17;101293.72;;;6.00
51149;BMP280;37210;50.058;8.688;2023-02-28T14:51:49;101267.81;;;5.78
51149;BMP280;37210;50.058;8.688;2023-02-28T14:54:28;101293.03;;;6.05
51149;BMP280;37210;50.058;8.688;2023-02-28T14:56:56;101293.22;;;5.86
51149;BMP280;37210;50.058;8.688;2023-02-28T14:59:26;101306.41;;;5.68